createdAt,value
2023-03-02T00:00:47.032Z,100.00
2023-03-02T00:03:18.734Z,100.00
2023-03-02T00:05:47.220Z,100.00
2023-03-02T00:08:17.449Z,100.00
2023-03-02T00:10:44.627Z,100.00
2023-03-02T00:13:13.972Z,100.00
2023-03-02T00:15:40.739Z,100.00
2023-03-02T00:18:07.463Z,100.00
2023-03-02T00:20:35.973Z,100.00
2023-03-02T00:23:02.840Z,100.00
2023-03-02T00:25:32.186Z,100.00
2023-03-02T00:27:59.007Z,100.00
2023-03-02T00:30:25.852Z,100.00
2023-03-02T00:32:52.661Z,100.00
2023-03-02T00:35:19.518Z,99.98
2023-03-02T00:37:46.350Z,99.83
2023-03-02T00:40:13.334Z,99.84
2023-03-02T00:42:40.160Z,99.87
2023-03-02T00:45:07.458Z,98.98
2023-03-02T00:47:35.664Z,98.73
2023-03-02T00:50:03.298Z,98.63
2023-03-02T00:52:31.340Z,98.71
2023-03-02T00:54:58.338Z,98.65
2023-03-02T00:57:25.365Z,98.53
2023-03-02T00:59:52.155Z,98.59
2023-03-02T01:02:21.556Z,98.07
2023-03-02T01:04:48.900Z,97.43
2023-03-02T01:07:18.339Z,97.18
2023-03-02T01:09:45.761Z,96.51
2023-03-02T01:12:12.824Z,94.83
2023-03-02T01:14:41.922Z,94.02
2023-03-02T01:17:10.288Z,94.34
2023-03-02T01:19:37.131Z,93.61
2023-03-02T01:22:04.133Z,93.54
2023-03-02T01:24:31.149Z,93.02
2023-03-02T01:26:58.326Z,92.64
2023-03-02T01:29:25.142Z,92.73
2023-03-02T01:31:52.116Z,92.53
2023-03-02T01:34:19.029Z,92.45
2023-03-02T01:36:46.204Z,91.46
2023-03-02T01:39:16.151Z,91.88
2023-03-02T01:41:44.171Z,91.66
2023-03-02T01:44:38.596Z,89.93
2023-03-02T01:47:15.004Z,90.35
2023-03-02T01:49:47.059Z,90.50
2023-03-02T01:52:15.637Z,90.93
2023-03-02T01:54:43.753Z,91.02
2023-03-02T01:57:11.577Z,91.14
2023-03-02T01:59:41.397Z,89.75
2023-03-02T02:02:11.548Z,89.64
2023-03-02T02:04:42.808Z,89.63
2023-03-02T02:07:10.041Z,89.48
2023-03-02T02:09:45.343Z,90.20
2023-03-02T02:12:17.085Z,90.71
2023-03-02T02:14:44.006Z,90.77
2023-03-02T02:17:12.252Z,90.93
2023-03-02T02:20:01.651Z,91.65
2023-03-02T02:22:35.332Z,92.38
2023-03-02T02:25:06.292Z,92.24
2023-03-02T02:27:34.107Z,92.70
2023-03-02T02:30:04.663Z,92.56
2023-03-02T02:32:34.547Z,91.80
2023-03-02T02:35:12.618Z,90.70
2023-03-02T02:37:41.451Z,90.85
2023-03-02T02:40:15.950Z,90.99
2023-03-02T02:42:46.374Z,90.97
2023-03-02T02:45:24.305Z,91.11
2023-03-02T02:47:52.774Z,91.22
2023-03-02T02:50:26.823Z,91.16
2023-03-02T02:53:17.317Z,91.27
2023-03-02T02:55:46.935Z,91.40
2023-03-02T02:58:22.806Z,91.65
2023-03-02T03:00:49.584Z,91.14
2023-03-02T03:03:33.295Z,91.32
2023-03-02T03:06:04.496Z,91.32
2023-03-02T03:08:46.462Z,90.87
2023-03-02T03:11:14.962Z,89.75
2023-03-02T03:13:43.668Z,90.42
2023-03-02T03:16:15.580Z,90.86
2023-03-02T03:18:45.271Z,90.82
2023-03-02T03:21:12.014Z,91.13
2023-03-02T03:23:38.852Z,90.92
2023-03-02T03:26:06.235Z,91.79
2023-03-02T03:28:33.984Z,91.51
2023-03-02T03:31:00.922Z,91.11
2023-03-02T03:33:28.630Z,91.48
2023-03-02T03:35:55.406Z,91.34
2023-03-02T03:38:22.286Z,91.43
2023-03-02T03:40:49.014Z,90.71
2023-03-02T03:43:16.389Z,90.72
2023-03-02T03:45:43.326Z,90.56
2023-03-02T03:48:10.071Z,91.33
2023-03-02T03:50:36.918Z,91.67
2023-03-02T03:53:04.019Z,91.77
2023-03-02T03:55:31.235Z,91.65
2023-03-02T03:57:58.027Z,91.20
2023-03-02T04:00:25.191Z,91.43
2023-03-02T04:02:52.280Z,91.71
2023-03-02T04:05:19.162Z,90.96
2023-03-02T04:07:45.988Z,91.35
2023-03-02T04:10:13.192Z,91.86
2023-03-02T04:12:42.087Z,92.63
2023-03-02T04:15:13.158Z,93.04
2023-03-02T04:17:39.959Z,93.12
2023-03-02T04:20:10.546Z,94.26
2023-03-02T04:22:37.389Z,94.59
2023-03-02T04:25:05.229Z,94.58
2023-03-02T04:27:32.117Z,93.89
2023-03-02T04:29:58.853Z,93.78
2023-03-02T04:32:25.709Z,94.03
2023-03-02T04:34:52.487Z,93.92
2023-03-02T04:37:19.300Z,93.73
2023-03-02T04:39:50.186Z,93.82
2023-03-02T04:42:19.158Z,93.82
2023-03-02T04:44:45.960Z,93.21
2023-03-02T04:47:12.837Z,93.29
2023-03-02T04:49:39.938Z,93.07
2023-03-02T04:52:06.997Z,93.02
2023-03-02T04:54:34.023Z,93.70
2023-03-02T04:57:00.795Z,93.22
2023-03-02T04:59:29.012Z,93.11
2023-03-02T05:01:58.545Z,92.78
2023-03-02T05:04:26.250Z,92.57
2023-03-02T05:06:53.001Z,92.73
2023-03-02T05:09:19.855Z,92.08
2023-03-02T05:11:46.908Z,90.98
2023-03-02T05:14:13.762Z,91.54
2023-03-02T05:16:41.738Z,92.01
2023-03-02T05:19:11.408Z,91.27
2023-03-02T05:21:38.317Z,91.69
2023-03-02T05:24:05.575Z,92.22
2023-03-02T05:26:32.867Z,91.92
2023-03-02T05:28:59.860Z,92.28
2023-03-02T05:31:35.059Z,92.81
2023-03-02T05:34:04.366Z,94.38
2023-03-02T05:36:31.138Z,94.94
2023-03-02T05:38:58.327Z,94.73
2023-03-02T05:41:25.278Z,94.71
2023-03-02T05:43:52.215Z,95.27
2023-03-02T05:46:21.603Z,95.63
2023-03-02T05:48:49.063Z,96.54
2023-03-02T05:51:15.919Z,97.01
2023-03-02T05:53:42.786Z,97.44
2023-03-02T05:56:10.176Z,97.46
2023-03-02T05:58:37.011Z,97.06
2023-03-02T06:01:09.213Z,97.56
2023-03-02T06:03:36.070Z,97.64
2023-03-02T06:06:02.907Z,97.80
2023-03-02T06:08:29.670Z,97.43
2023-03-02T06:10:57.174Z,97.64
2023-03-02T06:13:24.057Z,97.54
2023-03-02T06:15:50.805Z,97.40
2023-03-02T06:18:17.671Z,97.19
2023-03-02T06:20:44.507Z,97.24
2023-03-02T06:23:12.042Z,97.23
2023-03-02T06:25:41.354Z,97.29
2023-03-02T06:28:08.213Z,97.87
2023-03-02T06:30:35.131Z,98.32
2023-03-02T06:33:02.055Z,97.71
2023-03-02T06:35:29.244Z,97.41
2023-03-02T06:37:56.232Z,96.74
2023-03-02T06:40:22.985Z,95.85
2023-03-02T06:42:49.827Z,95.07
2023-03-02T06:45:16.748Z,92.74
2023-03-02T06:47:43.673Z,92.91
2023-03-02T06:50:11.099Z,92.00
2023-03-02T06:52:37.991Z,91.64
2023-03-02T06:55:05.302Z,91.30
2023-03-02T06:57:34.266Z,88.48
2023-03-02T07:00:03.523Z,89.18
2023-03-02T07:02:30.940Z,87.87
2023-03-02T07:04:57.835Z,87.69
2023-03-02T07:07:24.555Z,87.82
2023-03-02T07:09:51.392Z,88.11
2023-03-02T07:12:19.010Z,86.92
2023-03-02T07:14:45.750Z,87.40
2023-03-02T07:17:12.478Z,87.12
2023-03-02T07:19:40.884Z,85.51
2023-03-02T07:22:07.863Z,85.06
2023-03-02T07:24:34.767Z,85.57
2023-03-02T07:27:01.633Z,84.10
2023-03-02T07:29:28.511Z,83.86
2023-03-02T07:32:04.004Z,81.98
2023-03-02T07:34:30.850Z,79.60
2023-03-02T07:36:57.950Z,80.68
2023-03-02T07:39:24.703Z,81.16
2023-03-02T07:41:51.477Z,80.26
2023-03-02T07:44:18.163Z,77.99
2023-03-02T07:46:45.112Z,78.87
2023-03-02T07:49:11.924Z,79.14
2023-03-02T07:51:38.832Z,79.13
2023-03-02T07:54:05.638Z,80.04
2023-03-02T07:56:32.585Z,80.76
2023-03-02T07:58:59.448Z,79.75
2023-03-02T08:01:26.315Z,79.62
2023-03-02T08:03:53.293Z,79.33
2023-03-02T08:06:20.204Z,78.06
2023-03-02T08:08:47.148Z,78.27
2023-03-02T08:11:16.763Z,78.55
2023-03-02T08:13:43.989Z,78.87
2023-03-02T08:16:12.933Z,78.79
2023-03-02T08:18:40.843Z,77.71
2023-03-02T08:21:34.201Z,76.95
2023-03-02T08:24:01.221Z,76.05
2023-03-02T08:26:28.172Z,76.23
2023-03-02T08:28:54.969Z,74.77
2023-03-02T08:31:21.818Z,74.24
2023-03-02T08:33:48.592Z,74.54
2023-03-02T08:36:18.387Z,74.19
2023-03-02T08:38:45.673Z,74.88
2023-03-02T08:41:21.214Z,74.93
2023-03-02T08:43:48.722Z,74.02
2023-03-02T08:46:18.660Z,73.90
2023-03-02T08:48:46.810Z,72.47
2023-03-02T08:51:17.067Z,71.87
2023-03-02T08:53:46.993Z,73.32
2023-03-02T08:56:21.708Z,73.45
2023-03-02T08:58:49.473Z,73.51
2023-03-02T09:01:22.701Z,73.36
2023-03-02T09:03:49.636Z,73.01
2023-03-02T09:06:16.903Z,72.31
2023-03-02T09:08:44.574Z,72.67
2023-03-02T09:11:11.414Z,72.28
2023-03-02T09:13:38.688Z,71.60
2023-03-02T09:16:06.358Z,71.37
2023-03-02T09:18:34.171Z,71.44
2023-03-02T09:21:01.026Z,71.67
2023-03-02T09:23:28.747Z,71.69
2023-03-02T09:25:55.718Z,72.23
2023-03-02T09:28:23.293Z,72.26
2023-03-02T09:30:54.854Z,72.17
2023-03-02T09:33:21.949Z,71.67
2023-03-02T09:35:49.470Z,71.57
2023-03-02T09:38:18.257Z,71.43
2023-03-02T09:41:09.966Z,71.74
2023-03-02T09:44:08.758Z,72.29
2023-03-02T09:46:47.131Z,72.38
2023-03-02T09:49:32.160Z,72.11
2023-03-02T09:52:04.928Z,72.48
2023-03-02T09:54:32.403Z,72.12
2023-03-02T09:56:59.965Z,70.92
2023-03-02T09:59:33.223Z,71.24
2023-03-02T10:02:06.296Z,70.45
2023-03-02T10:04:41.252Z,70.84
2023-03-02T10:07:27.444Z,71.03
2023-03-02T10:09:56.052Z,70.57
2023-03-02T10:12:25.677Z,70.35
2023-03-02T10:15:14.591Z,71.20
2023-03-02T10:17:54.264Z,70.52
2023-03-02T10:20:48.384Z,70.12
2023-03-02T10:23:17.959Z,70.50
2023-03-02T10:25:53.094Z,69.79
2023-03-02T10:28:22.048Z,69.04
2023-03-02T10:30:59.516Z,69.74
2023-03-02T10:33:27.664Z,69.66
2023-03-02T10:35:54.571Z,68.58
2023-03-02T10:38:25.324Z,69.28
2023-03-02T10:41:00.176Z,69.38
2023-03-02T10:43:32.052Z,68.86
2023-03-02T10:46:02.014Z,69.03
2023-03-02T10:48:28.971Z,69.34
2023-03-02T10:50:58.455Z,69.54
2023-03-02T10:53:25.328Z,69.86
2023-03-02T10:55:53.777Z,69.75
2023-03-02T10:58:33.375Z,70.47
2023-03-02T11:01:01.887Z,70.81
2023-03-02T11:03:30.131Z,70.70
2023-03-02T11:05:58.165Z,71.04
2023-03-02T11:08:28.062Z,70.50
2023-03-02T11:11:00.890Z,70.44
2023-03-02T11:13:47.163Z,70.08
2023-03-02T11:16:19.759Z,68.99
2023-03-02T11:19:08.528Z,69.63
2023-03-02T11:21:41.628Z,70.35
2023-03-02T11:24:17.016Z,70.92
2023-03-02T11:27:15.537Z,71.55
2023-03-02T11:29:50.776Z,71.76
2023-03-02T11:32:42.762Z,71.43
2023-03-02T11:35:22.887Z,70.41
2023-03-02T11:37:55.682Z,71.71
2023-03-02T11:40:26.481Z,71.67
2023-03-02T11:42:56.786Z,71.63
2023-03-02T11:45:30.429Z,71.95
2023-03-02T11:48:04.255Z,71.94
2023-03-02T11:50:34.640Z,71.60
2023-03-02T11:53:06.563Z,72.04
2023-03-02T11:55:45.804Z,71.36
2023-03-02T11:58:21.851Z,72.00
2023-03-02T12:00:49.551Z,71.74
2023-03-02T12:03:16.264Z,70.96
2023-03-02T12:06:07.533Z,70.86
2023-03-02T12:08:44.763Z,71.83
2023-03-02T12:11:17.309Z,71.71
2023-03-02T12:14:00.441Z,72.39
2023-03-02T12:16:36.707Z,72.86
2023-03-02T12:19:39.836Z,73.13
2023-03-02T12:22:12.418Z,72.66
2023-03-02T12:24:42.638Z,72.80
2023-03-02T12:27:15.398Z,73.13
2023-03-02T12:29:45.114Z,73.13
2023-03-02T12:32:19.842Z,73.58
2023-03-02T12:35:01.299Z,73.47
2023-03-02T12:37:37.379Z,73.46
2023-03-02T12:40:33.531Z,73.55
2023-03-02T12:43:38.411Z,73.08
2023-03-02T12:46:10.950Z,72.66
2023-03-02T12:48:50.173Z,72.26
2023-03-02T12:51:23.623Z,72.80
2023-03-02T12:54:02.557Z,73.13
2023-03-02T12:56:29.428Z,72.69
2023-03-02T12:58:56.267Z,72.43
2023-03-02T13:01:28.985Z,71.58
2023-03-02T13:03:56.589Z,71.55
2023-03-02T13:06:26.907Z,71.69
2023-03-02T13:08:57.135Z,71.58
2023-03-02T13:11:32.129Z,72.22
2023-03-02T13:14:17.218Z,71.59
2023-03-02T13:16:57.884Z,71.19
2023-03-02T13:19:26.023Z,71.16
2023-03-02T13:21:53.272Z,70.94
2023-03-02T13:24:50.990Z,71.00
2023-03-02T13:27:22.138Z,71.59
2023-03-02T13:29:49.507Z,71.86
2023-03-02T13:32:35.897Z,72.20
2023-03-02T13:35:03.437Z,72.49
2023-03-02T13:37:43.536Z,73.24
2023-03-02T13:40:22.538Z,73.58
2023-03-02T13:42:49.349Z,73.96
2023-03-02T13:45:25.837Z,74.14
2023-03-02T13:47:54.518Z,73.65
2023-03-02T13:50:30.046Z,73.57
2023-03-02T13:53:01.187Z,73.45
2023-03-02T13:55:28.823Z,73.09
2023-03-02T13:57:56.313Z,73.43
2023-03-02T14:00:29.677Z,73.60
2023-03-02T14:02:56.506Z,74.02
2023-03-02T14:05:33.095Z,73.94
2023-03-02T14:08:00.648Z,73.56
2023-03-02T14:10:27.598Z,73.35
2023-03-02T14:13:01.691Z,74.04
2023-03-02T14:15:28.510Z,74.17
2023-03-02T14:17:55.342Z,74.32
2023-03-02T14:20:22.161Z,74.45
2023-03-02T14:22:49.040Z,74.87
2023-03-02T14:25:16.030Z,74.99
2023-03-02T14:27:43.977Z,75.73
2023-03-02T14:30:18.111Z,75.75
2023-03-02T14:32:45.275Z,76.19
2023-03-02T14:35:13.661Z,76.31
2023-03-02T14:37:47.064Z,76.24
2023-03-02T14:40:28.341Z,76.49
2023-03-02T14:42:55.293Z,76.28
2023-03-02T14:45:23.089Z,76.62
2023-03-02T14:47:49.955Z,76.48
2023-03-02T14:50:17.382Z,76.81
2023-03-02T14:52:54.922Z,77.04
2023-03-02T14:55:32.723Z,78.19
2023-03-02T14:58:03.319Z,79.52
2023-03-02T15:00:30.432Z,80.70
2023-03-02T15:02:59.266Z,82.02
2023-03-02T15:05:26.273Z,83.13
2023-03-02T15:07:53.847Z,83.00
2023-03-02T15:10:23.169Z,83.76
2023-03-02T15:12:50.800Z,85.21
2023-03-02T15:15:17.627Z,85.51
2023-03-02T15:17:44.545Z,85.55
2023-03-02T15:20:15.465Z,85.95
2023-03-02T15:22:42.392Z,86.04
2023-03-02T15:25:09.664Z,86.40
2023-03-02T15:27:37.746Z,86.85
2023-03-02T15:30:05.366Z,86.90
2023-03-02T15:32:32.204Z,87.67
2023-03-02T15:34:58.979Z,88.12
2023-03-02T15:37:25.826Z,87.79
2023-03-02T15:39:56.592Z,88.54
2023-03-02T15:42:23.982Z,89.21
2023-03-02T15:44:50.891Z,89.65
2023-03-02T15:47:17.712Z,89.39
2023-03-02T15:49:44.512Z,89.38
2023-03-02T15:52:12.225Z,89.93
2023-03-02T15:54:39.132Z,90.03
2023-03-02T15:57:05.951Z,90.41
2023-03-02T15:59:32.953Z,90.55
2023-03-02T16:02:02.227Z,90.30
2023-03-02T16:04:31.020Z,90.03
2023-03-02T16:06:58.129Z,89.97
2023-03-02T16:09:26.536Z,90.47
2023-03-02T16:11:53.377Z,90.29
2023-03-02T16:14:20.308Z,90.06
2023-03-02T16:16:47.466Z,90.33
2023-03-02T16:19:18.953Z,90.58
2023-03-02T16:21:47.132Z,90.83
2023-03-02T16:24:16.179Z,90.60
2023-03-02T16:26:43.334Z,91.38
2023-03-02T16:29:12.018Z,91.80
2023-03-02T16:31:39.741Z,91.76
2023-03-02T16:34:08.893Z,91.72
2023-03-02T16:36:40.472Z,91.80
2023-03-02T16:39:09.452Z,91.61
2023-03-02T16:41:37.090Z,91.75
2023-03-02T16:44:04.780Z,92.51
2023-03-02T16:46:36.373Z,92.67
2023-03-02T16:49:04.776Z,92.85
2023-03-02T16:51:32.169Z,92.74
2023-03-02T16:53:58.932Z,93.34
2023-03-02T16:56:25.837Z,94.58
2023-03-02T16:58:52.720Z,95.04
2023-03-02T17:01:22.410Z,95.06
2023-03-02T17:03:50.726Z,94.78
2023-03-02T17:06:20.725Z,94.87
2023-03-02T17:08:47.864Z,95.84
2023-03-02T17:11:15.204Z,95.92
2023-03-02T17:13:42.261Z,96.06
2023-03-02T17:16:09.280Z,96.36
2023-03-02T17:18:36.125Z,97.18
2023-03-02T17:21:04.101Z,96.76
2023-03-02T17:23:31.564Z,96.94
2023-03-02T17:25:58.456Z,97.91
2023-03-02T17:28:25.536Z,98.38
2023-03-02T17:30:52.477Z,98.83
2023-03-02T17:33:19.351Z,99.48
2023-03-02T17:35:46.553Z,99.98
2023-03-02T17:38:14.578Z,100.00
2023-03-02T17:40:42.542Z,100.00
2023-03-02T17:43:09.850Z,100.00
2023-03-02T17:45:36.690Z,100.00
2023-03-02T17:48:03.586Z,100.00
2023-03-02T17:50:31.893Z,100.00
2023-03-02T17:52:59.852Z,100.00
2023-03-02T17:55:26.861Z,100.00
2023-03-02T17:57:53.886Z,100.00
2023-03-02T18:00:23.137Z,100.00
2023-03-02T18:02:50.793Z,100.00
2023-03-02T18:05:17.824Z,100.00
2023-03-02T18:07:44.651Z,100.00
2023-03-02T18:10:12.496Z,100.00
2023-03-02T18:12:40.201Z,100.00
2023-03-02T18:15:08.072Z,100.00
2023-03-02T18:17:34.884Z,100.00
2023-03-02T18:20:01.773Z,100.00
2023-03-02T18:22:28.882Z,100.00
2023-03-02T18:24:55.865Z,100.00
2023-03-02T18:27:22.719Z,100.00
2023-03-02T18:29:49.692Z,100.00
2023-03-02T18:32:16.974Z,100.00
2023-03-02T18:34:45.646Z,100.00
2023-03-02T18:37:13.055Z,100.00
2023-03-02T18:39:39.782Z,100.00
2023-03-02T18:42:07.719Z,100.00
2023-03-02T18:44:35.443Z,100.00
2023-03-02T18:47:02.512Z,100.00
2023-03-02T18:49:30.992Z,100.00
2023-03-02T18:51:58.671Z,100.00
2023-03-02T18:54:25.524Z,100.00
2023-03-02T18:56:52.755Z,100.00
2023-03-02T18:59:19.829Z,100.00
2023-03-02T19:01:47.271Z,100.00
2023-03-02T19:04:15.276Z,100.00
2023-03-02T19:06:43.118Z,100.00
2023-03-02T19:09:10.301Z,100.00
2023-03-02T19:11:37.398Z,100.00
2023-03-02T19:14:04.593Z,100.00
2023-03-02T19:16:32.428Z,100.00
2023-03-02T19:18:59.542Z,100.00
2023-03-02T19:21:26.732Z,100.00
2023-03-02T19:23:53.760Z,100.00
2023-03-02T19:26:20.651Z,100.00
2023-03-02T19:28:47.574Z,100.00
2023-03-02T19:31:14.582Z,100.00
2023-03-02T19:33:42.411Z,100.00
2023-03-02T19:36:09.848Z,100.00
2023-03-02T19:38:40.631Z,100.00
2023-03-02T19:41:10.611Z,100.00
2023-03-02T19:43:37.519Z,100.00
2023-03-02T19:46:05.320Z,100.00
2023-03-02T19:48:34.035Z,100.00
2023-03-02T19:51:00.833Z,100.00
2023-03-02T19:53:27.723Z,100.00
2023-03-02T19:56:00.425Z,100.00
2023-03-02T19:58:28.517Z,100.00
2023-03-02T20:00:55.507Z,100.00
2023-03-02T20:03:22.421Z,100.00
2023-03-02T20:05:49.549Z,100.00
2023-03-02T20:08:16.973Z,100.00
2023-03-02T20:10:46.498Z,100.00
2023-03-02T20:13:13.333Z,100.00
2023-03-02T20:15:44.220Z,100.00
2023-03-02T20:18:15.155Z,100.00
2023-03-02T20:20:42.869Z,100.00
2023-03-02T20:23:09.853Z,100.00
2023-03-02T20:25:36.791Z,100.00
2023-03-02T20:28:05.829Z,100.00
2023-03-02T20:30:36.829Z,100.00
2023-03-02T20:33:06.703Z,100.00
2023-03-02T20:35:37.765Z,100.00
2023-03-02T20:38:06.228Z,100.00
2023-03-02T20:40:34.035Z,100.00
2023-03-02T20:43:01.218Z,100.00
2023-03-02T20:45:28.611Z,100.00
2023-03-02T20:47:56.904Z,100.00
2023-03-02T20:50:28.290Z,100.00
2023-03-02T20:52:55.119Z,100.00
2023-03-02T20:55:21.991Z,100.00
2023-03-02T20:57:49.034Z,100.00
2023-03-02T21:00:23.255Z,100.00
2023-03-02T21:02:50.104Z,100.00
2023-03-02T21:05:18.618Z,100.00
2023-03-02T21:07:46.393Z,100.00
2023-03-02T21:10:17.125Z,100.00
2023-03-02T21:12:45.761Z,100.00
2023-03-02T21:15:13.340Z,100.00
2023-03-02T21:17:40.266Z,100.00
2023-03-02T21:20:07.907Z,100.00
2023-03-02T21:22:34.767Z,100.00
2023-03-02T21:25:01.689Z,100.00
2023-03-02T21:27:29.089Z,100.00
2023-03-02T21:29:56.464Z,100.00
2023-03-02T21:32:23.452Z,100.00
2023-03-02T21:34:50.231Z,100.00
2023-03-02T21:37:17.119Z,100.00
2023-03-02T21:39:43.998Z,100.00
2023-03-02T21:42:12.171Z,100.00
2023-03-02T21:44:39.094Z,100.00
2023-03-02T21:47:05.915Z,100.00
2023-03-02T21:49:32.752Z,100.00
2023-03-02T21:51:59.652Z,100.00
2023-03-02T21:54:26.358Z,100.00
2023-03-02T21:56:53.100Z,100.00
2023-03-02T21:59:19.920Z,100.00
2023-03-02T22:01:46.769Z,100.00
2023-03-02T22:04:14.117Z,100.00
2023-03-02T22:06:40.912Z,100.00
2023-03-02T22:09:07.733Z,100.00
2023-03-02T22:11:36.808Z,100.00
2023-03-02T22:14:15.280Z,100.00
2023-03-02T22:16:45.154Z,100.00
2023-03-02T22:19:25.565Z,100.00
2023-03-02T22:21:56.516Z,100.00
2023-03-02T22:24:31.503Z,100.00
2023-03-02T22:27:08.583Z,100.00
2023-03-02T22:29:42.628Z,100.00
2023-03-02T22:32:25.644Z,100.00
2023-03-02T22:34:57.642Z,100.00
2023-03-02T22:37:37.358Z,100.00
2023-03-02T22:40:34.209Z,100.00
2023-03-02T22:43:12.110Z,100.00
2023-03-02T22:45:41.906Z,100.00
2023-03-02T22:48:15.335Z,100.00
2023-03-02T22:50:44.702Z,100.00
2023-03-02T22:53:30.221Z,100.00
2023-03-02T22:56:02.894Z,100.00
2023-03-02T22:58:45.019Z,100.00
2023-03-02T23:01:18.971Z,100.00
2023-03-02T23:03:47.336Z,100.00
2023-03-02T23:06:26.966Z,100.00
2023-03-02T23:08:57.036Z,100.00
2023-03-02T23:11:25.002Z,100.00
2023-03-02T23:13:53.347Z,100.00
2023-03-02T23:16:27.922Z,100.00
2023-03-02T23:18:59.222Z,100.00
2023-03-02T23:21:34.197Z,100.00
2023-03-02T23:24:02.521Z,100.00
2023-03-02T23:26:29.350Z,100.00
2023-03-02T23:28:56.235Z,100.00
2023-03-02T23:31:22.993Z,100.00
2023-03-02T23:33:49.861Z,100.00
2023-03-02T23:36:16.639Z,100.00
2023-03-02T23:38:43.417Z,100.00
2023-03-02T23:41:10.212Z,100.00
2023-03-02T23:43:37.065Z,100.00
2023-03-02T23:46:04.088Z,100.00
2023-03-02T23:48:30.905Z,100.00
2023-03-02T23:50:57.991Z,100.00
2023-03-02T23:53:24.708Z,100.00
2023-03-02T23:55:53.726Z,100.00
2023-03-02T23:58:21.248Z,100.00
